sensor_id;sensor_type;location;lat;lon;timestamp;temperature;humidity
40153;DHT22;26371;56.992;23.912;2023-02-28T00:01:30;-0.80;99.90
40153;DHT22;26371;56.992;23.912;2023-02-28T00:03:59;-0.70;99.90
40153;DHT22;26371;56.992;23.912;2023-02-28T00:06:28;-0.70;99.90
40153;DHT22;26371;56.992;23.912;2023-02-28T00:08:57;-0.70;99.90
40153;DHT22;26371;56.992;23.912;2023-02-28T00:11:26;-0.70;99.90
40153;DHT22;26371;56.992;23.912;2023-02-28T00:13:55;-0.70;99.90
40153;DHT22;26371;56.992;23.912;2023-02-28T00:16:24;-0.60;99.90
40153;DHT22;26371;56.992;23.912;2023-02-28T00:18:54;-0.60;99.90
40153;DHT22;26371;56.992;23.912;2023-02-28T00:21:22;-0.60;99.90
40153;DHT22;26371;56.992;23.912;2023-02-28T00:23:51;-0.60;99.90
40153;DHT22;26371;56.992;23.912;2023-02-28T00:26:20;-0.60;99.90
40153;DHT22;26371;56.992;23.912;2023-02-28T00:28:49;-0.60;99.90
40153;DHT22;26371;56.992;23.912;2023-02-28T00:31:22;-0.60;99.90
40153;DHT22;26371;56.992;23.912;2023-02-28T00:33:51;-0.60;99.90
40153;DHT22;26371;56.992;23.912;2023-02-28T00:36:21;-0.60;99.90
40153;DHT22;26371;56.992;23.912;2023-02-28T00:38:50;-0.60;99.90
40153;DHT22;26371;56.992;23.912;2023-02-28T00:41:19;-0.60;99.90
40153;DHT22;26371;56.992;23.912;2023-02-28T00:43:47;-0.60;99.90
40153;DHT22;26371;56.992;23.912;2023-02-28T00:46:16;-0.60;99.90
40153;DHT22;26371;56.992;23.912;2023-02-28T00:48:45;-0.60;99.90
40153;DHT22;26371;56.992;23.912;2023-02-28T00:51:14;-0.60;99.90
40153;DHT22;26371;56.992;23.912;2023-02-28T00:53:44;-0.60;99.90
40153;DHT22;26371;56.992;23.912;2023-02-28T00:56:13;-0.60;99.90
40153;DHT22;26371;56.992;23.912;2023-02-28T00:58:47;-0.60;99.90
40153;DHT22;26371;56.992;23.912;2023-02-28T01:01:19;-0.60;99.90
40153;DHT22;26371;56.992;23.912;2023-02-28T01:03:48;-0.60;99.90
40153;DHT22;26371;56.992;23.912;2023-02-28T01:06:16;-0.60;99.90
40153;DHT22;26371;56.992;23.912;2023-02-28T01:08:46;-0.60;99.90
40153;DHT22;26371;56.992;23.912;2023-02-28T01:11:16;-0.60;99.90
40153;DHT22;26371;56.992;23.912;2023-02-28T01:13:46;-0.60;99.90
40153;DHT22;26371;56.992;23.912;2023-02-28T01:16:15;-0.50;99.90
40153;DHT22;26371;56.992;23.912;2023-02-28T01:18:45;-0.50;99.90
40153;DHT22;26371;56.992;23.912;2023-02-28T01:21:15;-0.50;99.90
40153;DHT22;26371;56.992;23.912;2023-02-28T01:23:46;-0.50;99.90
40153;DHT22;26371;56.992;23.912;2023-02-28T01:26:16;-0.60;99.90
40153;DHT22;26371;56.992;23.912;2023-02-28T01:28:45;-0.70;99.90
40153;DHT22;26371;56.992;23.912;2023-02-28T01:31:14;-0.60;99.90
40153;DHT22;26371;56.992;23.912;2023-02-28T01:33:43;-0.70;99.90
40153;DHT22;26371;56.992;23.912;2023-02-28T01:36:13;-0.70;99.90
40153;DHT22;26371;56.992;23.912;2023-02-28T01:38:42;-0.70;99.90
40153;DHT22;26371;56.992;23.912;2023-02-28T01:41:17;-0.70;99.90
40153;DHT22;26371;56.992;23.912;2023-02-28T01:44:00;-0.80;99.90
40153;DHT22;26371;56.992;23.912;2023-02-28T01:46:33;-0.80;99.90
40153;DHT22;26371;56.992;23.912;2023-02-28T01:49:06;-0.80;99.90
40153;DHT22;26371;56.992;23.912;2023-02-28T01:51:39;-0.80;99.90
40153;DHT22;26371;56.992;23.912;2023-02-28T01:54:18;-0.70;99.90
40153;DHT22;26371;56.992;23.912;2023-02-28T01:56:52;-0.70;99.90
40153;DHT22;26371;56.992;23.912;2023-02-28T01:59:27;-0.70;99.90
40153;DHT22;26371;56.992;23.912;2023-02-28T02:01:57;-0.60;99.90
40153;DHT22;26371;56.992;23.912;2023-02-28T02:04:33;-0.60;99.90
40153;DHT22;26371;56.992;23.912;2023-02-28T02:07:03;-0.60;99.90
40153;DHT22;26371;56.992;23.912;2023-02-28T02:09:32;-0.60;99.90
40153;DHT22;26371;56.992;23.912;2023-02-28T02:12:10;-0.60;99.90
40153;DHT22;26371;56.992;23.912;2023-02-28T02:14:58;-0.60;99.90
40153;DHT22;26371;56.992;23.912;2023-02-28T02:17:34;-0.60;99.90
40153;DHT22;26371;56.992;23.912;2023-02-28T02:23:39;-0.60;99.90
40153;DHT22;26371;56.992;23.912;2023-02-28T02:26:36;-0.60;99.90
40153;DHT22;26371;56.992;23.912;2023-02-28T02:32:18;-0.70;99.90
40153;DHT22;26371;56.992;23.912;2023-02-28T02:34:56;-0.70;99.90
40153;DHT22;26371;56.992;23.912;2023-02-28T02:37:31;-0.70;99.90
40153;DHT22;26371;56.992;23.912;2023-02-28T02:40:12;-0.60;99.90
40153;DHT22;26371;56.992;23.912;2023-02-28T02:42:48;-0.60;99.90
40153;DHT22;26371;56.992;23.912;2023-02-28T02:45:23;-0.60;99.90
40153;DHT22;26371;56.992;23.912;2023-02-28T02:47:56;-0.50;99.90
40153;DHT22;26371;56.992;23.912;2023-02-28T02:50:37;-0.60;99.90
40153;DHT22;26371;56.992;23.912;2023-02-28T02:53:17;-0.50;99.90
40153;DHT22;26371;56.992;23.912;2023-02-28T02:55:50;-0.50;99.90
40153;DHT22;26371;56.992;23.912;2023-02-28T02:58:28;-0.50;99.90
40153;DHT22;26371;56.992;23.912;2023-02-28T03:00:59;-0.50;99.90
40153;DHT22;26371;56.992;23.912;2023-02-28T03:03:31;-0.40;99.90
40153;DHT22;26371;56.992;23.912;2023-02-28T03:06:03;-0.30;99.90
40153;DHT22;26371;56.992;23.912;2023-02-28T03:08:35;-0.20;99.90
40153;DHT22;26371;56.992;23.912;2023-02-28T03:11:06;-0.20;99.90
40153;DHT22;26371;56.992;23.912;2023-02-28T03:13:51;-0.10;99.90
40153;DHT22;26371;56.992;23.912;2023-02-28T03:16:35;0.10;99.90
40153;DHT22;26371;56.992;23.912;2023-02-28T03:19:23;0.20;99.90
40153;DHT22;26371;56.992;23.912;2023-02-28T03:22:04;0.20;99.90
40153;DHT22;26371;56.992;23.912;2023-02-28T03:24:40;0.30;99.90
40153;DHT22;26371;56.992;23.912;2023-02-28T03:27:15;0.30;99.90
40153;DHT22;26371;56.992;23.912;2023-02-28T03:29:47;0.40;99.90
40153;DHT22;26371;56.992;23.912;2023-02-28T03:32:22;0.50;99.90
40153;DHT22;26371;56.992;23.912;2023-02-28T03:35:00;0.50;99.90
40153;DHT22;26371;56.992;23.912;2023-02-28T03:37:34;0.60;99.90
40153;DHT22;26371;56.992;23.912;2023-02-28T03:40:08;0.60;99.90
40153;DHT22;26371;56.992;23.912;2023-02-28T03:42:42;0.60;99.90
40153;DHT22;26371;56.992;23.912;2023-02-28T03:45:13;0.50;99.90
40153;DHT22;26371;56.992;23.912;2023-02-28T03:47:49;0.40;99.90
40153;DHT22;26371;56.992;23.912;2023-02-28T03:50:21;0.40;99.90
40153;DHT22;26371;56.992;23.912;2023-02-28T03:52:55;0.40;99.90
40153;DHT22;26371;56.992;23.912;2023-02-28T03:55:31;0.40;99.90
40153;DHT22;26371;56.992;23.912;2023-02-28T03:58:05;0.50;99.90
40153;DHT22;26371;56.992;23.912;2023-02-28T04:00:38;0.60;99.90
40153;DHT22;26371;56.992;23.912;2023-02-28T04:03:08;0.60;99.90
40153;DHT22;26371;56.992;23.912;2023-02-28T04:05:49;0.60;99.90
40153;DHT22;26371;56.992;23.912;2023-02-28T04:08:20;0.70;99.90
40153;DHT22;26371;56.992;23.912;2023-02-28T04:10:54;0.60;99.90
40153;DHT22;26371;56.992;23.912;2023-02-28T04:13:23;0.60;99.90
40153;DHT22;26371;56.992;23.912;2023-02-28T04:15:52;0.50;99.90
40153;DHT22;26371;56.992;23.912;2023-02-28T04:18:20;0.50;99.90
40153;DHT22;26371;56.992;23.912;2023-02-28T04:20:54;0.50;99.90
40153;DHT22;26371;56.992;23.912;2023-02-28T04:23:24;0.50;99.90
40153;DHT22;26371;56.992;23.912;2023-02-28T04:25:55;0.40;99.90
40153;DHT22;26371;56.992;23.912;2023-02-28T04:28:23;0.40;99.90
40153;DHT22;26371;56.992;23.912;2023-02-28T04:30:55;0.50;99.90
40153;DHT22;26371;56.992;23.912;2023-02-28T04:33:24;0.60;99.90
40153;DHT22;26371;56.992;23.912;2023-02-28T04:35:59;0.60;99.90
40153;DHT22;26371;56.992;23.912;2023-02-28T04:38:34;0.50;99.90
40153;DHT22;26371;56.992;23.912;2023-02-28T04:41:03;0.60;99.90
40153;DHT22;26371;56.992;23.912;2023-02-28T04:43:32;0.60;99.90
40153;DHT22;26371;56.992;23.912;2023-02-28T04:46:04;0.70;99.90
40153;DHT22;26371;56.992;23.912;2023-02-28T04:48:35;0.80;99.90
40153;DHT22;26371;56.992;23.912;2023-02-28T04:51:05;0.90;99.90
40153;DHT22;26371;56.992;23.912;2023-02-28T04:53:37;1.00;99.90
40153;DHT22;26371;56.992;23.912;2023-02-28T04:56:07;1.00;99.90
40153;DHT22;26371;56.992;23.912;2023-02-28T04:58:36;1.00;99.90
40153;DHT22;26371;56.992;23.912;2023-02-28T05:01:07;1.00;99.90
40153;DHT22;26371;56.992;23.912;2023-02-28T05:03:46;1.00;99.90
40153;DHT22;26371;56.992;23.912;2023-02-28T05:06:15;1.00;99.90
40153;DHT22;26371;56.992;23.912;2023-02-28T05:08:48;1.00;99.90
40153;DHT22;26371;56.992;23.912;2023-02-28T05:11:19;1.00;99.90
40153;DHT22;26371;56.992;23.912;2023-02-28T05:13:49;1.10;99.90
40153;DHT22;26371;56.992;23.912;2023-02-28T05:16:17;1.10;99.90
40153;DHT22;26371;56.992;23.912;2023-02-28T05:18:47;1.20;99.90
40153;DHT22;26371;56.992;23.912;2023-02-28T05:21:27;1.20;99.90
40153;DHT22;26371;56.992;23.912;2023-02-28T05:24:02;1.20;99.90
40153;DHT22;26371;56.992;23.912;2023-02-28T05:26:33;1.20;99.90
40153;DHT22;26371;56.992;23.912;2023-02-28T05:29:02;1.20;99.90
40153;DHT22;26371;56.992;23.912;2023-02-28T05:31:32;1.20;99.90
40153;DHT22;26371;56.992;23.912;2023-02-28T05:34:01;1.20;99.90
40153;DHT22;26371;56.992;23.912;2023-02-28T05:36:31;1.20;99.90
40153;DHT22;26371;56.992;23.912;2023-02-28T05:39:02;1.20;99.90
40153;DHT22;26371;56.992;23.912;2023-02-28T05:41:30;1.20;99.90
40153;DHT22;26371;56.992;23.912;2023-02-28T05:43:59;1.30;99.90
40153;DHT22;26371;56.992;23.912;2023-02-28T05:46:28;1.30;99.90
40153;DHT22;26371;56.992;23.912;2023-02-28T05:48:57;1.30;99.90
40153;DHT22;26371;56.992;23.912;2023-02-28T05:51:27;1.30;99.90
40153;DHT22;26371;56.992;23.912;2023-02-28T05:54:00;1.40;99.90
40153;DHT22;26371;56.992;23.912;2023-02-28T05:56:29;1.40;99.90
40153;DHT22;26371;56.992;23.912;2023-02-28T05:58:58;1.40;99.90
40153;DHT22;26371;56.992;23.912;2023-02-28T06:01:32;1.40;99.90
40153;DHT22;26371;56.992;23.912;2023-02-28T06:04:03;1.40;99.90
40153;DHT22;26371;56.992;23.912;2023-02-28T06:06:32;1.50;99.90
40153;DHT22;26371;56.992;23.912;2023-02-28T06:09:05;1.50;99.90
40153;DHT22;26371;56.992;23.912;2023-02-28T06:11:33;1.50;99.90
40153;DHT22;26371;56.992;23.912;2023-02-28T06:14:04;1.60;99.90
40153;DHT22;26371;56.992;23.912;2023-02-28T06:16:34;1.50;99.90
40153;DHT22;26371;56.992;23.912;2023-02-28T06:19:04;1.50;99.90
40153;DHT22;26371;56.992;23.912;2023-02-28T06:21:32;1.60;99.90
40153;DHT22;26371;56.992;23.912;2023-02-28T06:24:01;1.60;99.90
40153;DHT22;26371;56.992;23.912;2023-02-28T06:26:32;1.50;99.90
40153;DHT22;26371;56.992;23.912;2023-02-28T06:29:00;1.60;99.90
40153;DHT22;26371;56.992;23.912;2023-02-28T06:31:30;1.60;99.90
40153;DHT22;26371;56.992;23.912;2023-02-28T06:33:59;1.60;99.90
40153;DHT22;26371;56.992;23.912;2023-02-28T06:36:27;1.70;99.90
40153;DHT22;26371;56.992;23.912;2023-02-28T06:38:56;1.80;99.90
40153;DHT22;26371;56.992;23.912;2023-02-28T06:41:25;1.80;99.90
40153;DHT22;26371;56.992;23.912;2023-02-28T06:43:57;1.80;99.90
40153;DHT22;26371;56.992;23.912;2023-02-28T06:46:26;1.90;99.90
40153;DHT22;26371;56.992;23.912;2023-02-28T06:48:54;2.00;99.90
40153;DHT22;26371;56.992;23.912;2023-02-28T06:51:23;2.00;99.90
40153;DHT22;26371;56.992;23.912;2023-02-28T06:53:52;2.00;99.90
40153;DHT22;26371;56.992;23.912;2023-02-28T06:56:21;2.10;99.90
40153;DHT22;26371;56.992;23.912;2023-02-28T06:58:50;2.20;99.90
40153;DHT22;26371;56.992;23.912;2023-02-28T07:01:21;2.30;99.90
40153;DHT22;26371;56.992;23.912;2023-02-28T07:03:51;2.40;99.90
40153;DHT22;26371;56.992;23.912;2023-02-28T07:06:20;2.40;99.90
40153;DHT22;26371;56.992;23.912;2023-02-28T07:08:50;2.40;99.90
40153;DHT22;26371;56.992;23.912;2023-02-28T07:11:19;2.50;99.90
40153;DHT22;26371;56.992;23.912;2023-02-28T07:13:49;2.50;99.90
40153;DHT22;26371;56.992;23.912;2023-02-28T07:16:18;2.60;99.90
40153;DHT22;26371;56.992;23.912;2023-02-28T07:18:48;2.60;99.90
40153;DHT22;26371;56.992;23.912;2023-02-28T07:21:17;2.70;99.90
40153;DHT22;26371;56.992;23.912;2023-02-28T07:23:46;2.70;99.90
40153;DHT22;26371;56.992;23.912;2023-02-28T07:26:16;2.70;99.90
40153;DHT22;26371;56.992;23.912;2023-02-28T07:28:46;2.80;99.90
40153;DHT22;26371;56.992;23.912;2023-02-28T07:31:16;2.80;99.90
40153;DHT22;26371;56.992;23.912;2023-02-28T07:33:45;2.90;99.90
40153;DHT22;26371;56.992;23.912;2023-02-28T07:36:17;2.90;99.90
40153;DHT22;26371;56.992;23.912;2023-02-28T07:38:47;2.90;99.90
40153;DHT22;26371;56.992;23.912;2023-02-28T07:41:21;3.00;99.90
40153;DHT22;26371;56.992;23.912;2023-02-28T07:43:53;3.00;99.90
40153;DHT22;26371;56.992;23.912;2023-02-28T07:46:22;3.10;99.90
40153;DHT22;26371;56.992;23.912;2023-02-28T07:48:51;3.10;99.90
40153;DHT22;26371;56.992;23.912;2023-02-28T07:51:22;3.20;99.90
40153;DHT22;26371;56.992;23.912;2023-02-28T07:53:51;3.20;99.90
40153;DHT22;26371;56.992;23.912;2023-02-28T07:56:19;3.20;99.90
40153;DHT22;26371;56.992;23.912;2023-02-28T07:58:50;3.20;99.90
40153;DHT22;26371;56.992;23.912;2023-02-28T08:01:19;3.30;99.90
40153;DHT22;26371;56.992;23.912;2023-02-28T08:03:51;3.30;99.90
40153;DHT22;26371;56.992;23.912;2023-02-28T08:06:23;3.30;99.90
40153;DHT22;26371;56.992;23.912;2023-02-28T08:08:53;3.40;99.90
40153;DHT22;26371;56.992;23.912;2023-02-28T08:11:23;3.40;99.90
40153;DHT22;26371;56.992;23.912;2023-02-28T08:13:52;3.50;99.90
40153;DHT22;26371;56.992;23.912;2023-02-28T08:16:22;3.50;99.90
40153;DHT22;26371;56.992;23.912;2023-02-28T08:18:51;3.50;99.90
40153;DHT22;26371;56.992;23.912;2023-02-28T08:21:22;3.50;99.90
40153;DHT22;26371;56.992;23.912;2023-02-28T08:23:51;3.50;99.90
40153;DHT22;26371;56.992;23.912;2023-02-28T08:26:20;3.50;99.90
40153;DHT22;26371;56.992;23.912;2023-02-28T08:28:49;3.50;99.90
40153;DHT22;26371;56.992;23.912;2023-02-28T08:31:18;3.50;99.90
40153;DHT22;26371;56.992;23.912;2023-02-28T08:33:47;3.60;99.90
40153;DHT22;26371;56.992;23.912;2023-02-28T08:36:18;3.60;99.90
40153;DHT22;26371;56.992;23.912;2023-02-28T08:38:49;3.70;99.90
40153;DHT22;26371;56.992;23.912;2023-02-28T08:41:17;3.70;99.90
40153;DHT22;26371;56.992;23.912;2023-02-28T08:43:46;3.70;99.90
40153;DHT22;26371;56.992;23.912;2023-02-28T08:46:15;3.80;99.90
40153;DHT22;26371;56.992;23.912;2023-02-28T08:48:44;3.80;99.90
40153;DHT22;26371;56.992;23.912;2023-02-28T08:51:14;3.80;99.90
40153;DHT22;26371;56.992;23.912;2023-02-28T08:53:43;3.90;99.90
40153;DHT22;26371;56.992;23.912;2023-02-28T08:56:14;3.90;99.90
40153;DHT22;26371;56.992;23.912;2023-02-28T08:58:44;4.00;99.90
40153;DHT22;26371;56.992;23.912;2023-02-28T09:01:14;4.20;99.90
40153;DHT22;26371;56.992;23.912;2023-02-28T09:03:44;4.30;99.90
40153;DHT22;26371;56.992;23.912;2023-02-28T09:06:15;4.20;99.90
40153;DHT22;26371;56.992;23.912;2023-02-28T09:08:45;4.10;99.90
40153;DHT22;26371;56.992;23.912;2023-02-28T09:11:15;4.20;99.90
40153;DHT22;26371;56.992;23.912;2023-02-28T09:13:43;4.30;99.90
40153;DHT22;26371;56.992;23.912;2023-02-28T09:16:14;4.40;99.90
40153;DHT22;26371;56.992;23.912;2023-02-28T09:18:43;4.50;99.90
40153;DHT22;26371;56.992;23.912;2023-02-28T09:21:13;4.50;99.90
40153;DHT22;26371;56.992;23.912;2023-02-28T09:23:43;4.50;99.90
40153;DHT22;26371;56.992;23.912;2023-02-28T09:26:17;4.60;99.90
40153;DHT22;26371;56.992;23.912;2023-02-28T09:28:46;4.60;99.90
40153;DHT22;26371;56.992;23.912;2023-02-28T09:31:16;4.60;99.90
40153;DHT22;26371;56.992;23.912;2023-02-28T09:33:48;4.60;99.90
40153;DHT22;26371;56.992;23.912;2023-02-28T09:36:17;4.60;99.90
40153;DHT22;26371;56.992;23.912;2023-02-28T09:38:46;4.70;99.90
40153;DHT22;26371;56.992;23.912;2023-02-28T09:41:21;4.60;99.90
40153;DHT22;26371;56.992;23.912;2023-02-28T09:43:52;4.60;99.90
40153;DHT22;26371;56.992;23.912;2023-02-28T09:46:37;4.60;99.90
40153;DHT22;26371;56.992;23.912;2023-02-28T09:49:12;4.60;99.90
40153;DHT22;26371;56.992;23.912;2023-02-28T09:51:47;4.50;99.90
40153;DHT22;26371;56.992;23.912;2023-02-28T09:54:20;4.60;99.90
40153;DHT22;26371;56.992;23.912;2023-02-28T09:56:53;4.60;99.90
40153;DHT22;26371;56.992;23.912;2023-02-28T09:59:36;4.70;99.90
40153;DHT22;26371;56.992;23.912;2023-02-28T10:02:19;4.70;99.90
40153;DHT22;26371;56.992;23.912;2023-02-28T10:04:53;4.70;99.90
40153;DHT22;26371;56.992;23.912;2023-02-28T10:07:35;4.60;99.90
40153;DHT22;26371;56.992;23.912;2023-02-28T10:10:17;4.60;99.90
40153;DHT22;26371;56.992;23.912;2023-02-28T10:12:49;4.60;99.90
40153;DHT22;26371;56.992;23.912;2023-02-28T10:15:22;4.50;99.90
40153;DHT22;26371;56.992;23.912;2023-02-28T10:17:58;4.50;99.90
40153;DHT22;26371;56.992;23.912;2023-02-28T10:20:39;4.50;99.90
40153;DHT22;26371;56.992;23.912;2023-02-28T10:23:13;4.60;99.90
40153;DHT22;26371;56.992;23.912;2023-02-28T10:25:47;4.60;99.90
40153;DHT22;26371;56.992;23.912;2023-02-28T10:28:19;4.70;99.90
40153;DHT22;26371;56.992;23.912;2023-02-28T10:30:51;4.70;99.90
40153;DHT22;26371;56.992;23.912;2023-02-28T10:33:23;4.70;99.90
40153;DHT22;26371;56.992;23.912;2023-02-28T10:35:53;4.80;99.90
40153;DHT22;26371;56.992;23.912;2023-02-28T10:38:23;4.80;99.90
40153;DHT22;26371;56.992;23.912;2023-02-28T10:41:03;4.90;99.90
40153;DHT22;26371;56.992;23.912;2023-02-28T10:43:34;5.00;99.90
40153;DHT22;26371;56.992;23.912;2023-02-28T10:46:05;5.00;99.90
40153;DHT22;26371;56.992;23.912;2023-02-28T10:48:43;5.00;99.90
40153;DHT22;26371;56.992;23.912;2023-02-28T10:51:14;5.00;99.90
40153;DHT22;26371;56.992;23.912;2023-02-28T10:53:48;5.10;99.90
40153;DHT22;26371;56.992;23.912;2023-02-28T10:56:28;5.10;99.90
40153;DHT22;26371;56.992;23.912;2023-02-28T10:59:01;5.10;99.90
40153;DHT22;26371;56.992;23.912;2023-02-28T11:01:38;5.00;99.90
40153;DHT22;26371;56.992;23.912;2023-02-28T11:04:31;4.90;99.90
40153;DHT22;26371;56.992;23.912;2023-02-28T11:07:05;4.80;99.90
40153;DHT22;26371;56.992;23.912;2023-02-28T11:09:37;4.80;99.90
40153;DHT22;26371;56.992;23.912;2023-02-28T11:12:20;4.70;99.90
40153;DHT22;26371;56.992;23.912;2023-02-28T11:14:53;4.70;99.90
40153;DHT22;26371;56.992;23.912;2023-02-28T11:17:24;4.70;99.90
40153;DHT22;26371;56.992;23.912;2023-02-28T11:19:56;4.70;99.90
40153;DHT22;26371;56.992;23.912;2023-02-28T11:22:27;4.80;99.90
40153;DHT22;26371;56.992;23.912;2023-02-28T11:24:59;5.00;99.90
40153;DHT22;26371;56.992;23.912;2023-02-28T11:27:46;5.10;99.90
40153;DHT22;26371;56.992;23.912;2023-02-28T11:30:33;5.20;99.90
40153;DHT22;26371;56.992;23.912;2023-02-28T11:33:21;5.20;99.90
40153;DHT22;26371;56.992;23.912;2023-02-28T11:35:51;5.30;99.90
40153;DHT22;26371;56.992;23.912;2023-02-28T11:38:21;5.20;99.90
40153;DHT22;26371;56.992;23.912;2023-02-28T11:41:07;5.20;99.90
40153;DHT22;26371;56.992;23.912;2023-02-28T11:43:53;5.10;99.90
40153;DHT22;26371;56.992;23.912;2023-02-28T11:46:33;5.00;99.90
40153;DHT22;26371;56.992;23.912;2023-02-28T11:49:07;4.90;99.90
40153;DHT22;26371;56.992;23.912;2023-02-28T11:51:48;4.80;99.90
40153;DHT22;26371;56.992;23.912;2023-02-28T11:57:33;4.80;99.90
40153;DHT22;26371;56.992;23.912;2023-02-28T12:00:13;4.80;99.90
40153;DHT22;26371;56.992;23.912;2023-02-28T12:02:58;4.90;99.90
40153;DHT22;26371;56.992;23.912;2023-02-28T12:05:31;4.90;99.90
40153;DHT22;26371;56.992;23.912;2023-02-28T12:08:10;4.90;99.90
40153;DHT22;26371;56.992;23.912;2023-02-28T12:10:54;4.90;99.90
40153;DHT22;26371;56.992;23.912;2023-02-28T12:13:32;4.80;99.90
40153;DHT22;26371;56.992;23.912;2023-02-28T12:16:24;4.80;99.90
40153;DHT22;26371;56.992;23.912;2023-02-28T12:19:09;4.70;99.90
40153;DHT22;26371;56.992;23.912;2023-02-28T12:27:42;4.70;99.90
40153;DHT22;26371;56.992;23.912;2023-02-28T12:30:16;4.80;99.90
40153;DHT22;26371;56.992;23.912;2023-02-28T12:33:08;4.80;99.90
40153;DHT22;26371;56.992;23.912;2023-02-28T12:35:41;4.80;99.90
40153;DHT22;26371;56.992;23.912;2023-02-28T12:38:15;4.80;99.90
40153;DHT22;26371;56.992;23.912;2023-02-28T12:40:50;4.70;99.90
40153;DHT22;26371;56.992;23.912;2023-02-28T12:43:22;4.60;99.90
40153;DHT22;26371;56.992;23.912;2023-02-28T12:45:56;4.60;99.90
40153;DHT22;26371;56.992;23.912;2023-02-28T12:48:33;4.50;99.90
40153;DHT22;26371;56.992;23.912;2023-02-28T12:51:06;4.50;99.90
40153;DHT22;26371;56.992;23.912;2023-02-28T12:53:49;4.50;99.90
40153;DHT22;26371;56.992;23.912;2023-02-28T12:56:30;4.50;99.90
40153;DHT22;26371;56.992;23.912;2023-02-28T12:59:07;4.50;99.90
40153;DHT22;26371;56.992;23.912;2023-02-28T13:01:56;4.50;99.90
40153;DHT22;26371;56.992;23.912;2023-02-28T13:04:53;4.50;99.90
40153;DHT22;26371;56.992;23.912;2023-02-28T13:07:41;4.50;99.90
40153;DHT22;26371;56.992;23.912;2023-02-28T13:10:11;4.50;99.90
40153;DHT22;26371;56.992;23.912;2023-02-28T13:12:48;4.50;99.90
40153;DHT22;26371;56.992;23.912;2023-02-28T13:15:19;4.50;99.90
40153;DHT22;26371;56.992;23.912;2023-02-28T13:17:52;4.60;99.90
40153;DHT22;26371;56.992;23.912;2023-02-28T13:20:24;4.60;99.90
40153;DHT22;26371;56.992;23.912;2023-02-28T13:22:55;4.70;99.90
40153;DHT22;26371;56.992;23.912;2023-02-28T13:25:51;4.60;99.90
40153;DHT22;26371;56.992;23.912;2023-02-28T13:34:38;4.50;99.90
40153;DHT22;26371;56.992;23.912;2023-02-28T13:37:34;4.50;99.90
40153;DHT22;26371;56.992;23.912;2023-02-28T13:40:32;4.40;99.90
40153;DHT22;26371;56.992;23.912;2023-02-28T13:43:08;4.30;99.90
40153;DHT22;26371;56.992;23.912;2023-02-28T13:45:37;4.30;99.90
40153;DHT22;26371;56.992;23.912;2023-02-28T13:48:15;4.40;99.90
40153;DHT22;26371;56.992;23.912;2023-02-28T13:50:44;4.30;99.90
40153;DHT22;26371;56.992;23.912;2023-02-28T13:53:41;4.40;99.90
40153;DHT22;26371;56.992;23.912;2023-02-28T13:56:33;4.40;99.90
40153;DHT22;26371;56.992;23.912;2023-02-28T13:59:12;4.40;99.90
40153;DHT22;26371;56.992;23.912;2023-02-28T14:02:03;4.40;99.90
40153;DHT22;26371;56.992;23.912;2023-02-28T14:04:49;4.50;99.90
40153;DHT22;26371;56.992;23.912;2023-02-28T14:07:23;4.50;99.90
40153;DHT22;26371;56.992;23.912;2023-02-28T14:10:00;4.50;99.90
40153;DHT22;26371;56.992;23.912;2023-02-28T14:12:56;4.50;99.90
40153;DHT22;26371;56.992;23.912;2023-02-28T14:15:47;4.50;99.90
40153;DHT22;26371;56.992;23.912;2023-02-28T14:18:25;4.50;99.90
40153;DHT22;26371;56.992;23.912;2023-02-28T14:20:58;4.50;99.90
40153;DHT22;26371;56.992;23.912;2023-02-28T14:23:44;4.40;99.90
40153;DHT22;26371;56.992;23.912;2023-02-28T14:26:29;4.40;99.90
40153;DHT22;26371;56.992;23.912;2023-02-28T14:29:26;4.20;99.90
40153;DHT22;26371;56.992;23.912;2023-02-28T14:32:01;4.10;99.90
40153;DHT22;26371;56.992;23.912;2023-02-28T14:34:37;4.00;99.90
40153;DHT22;26371;56.992;23.912;2023-02-28T14:37:14;3.90;99.90
40153;DHT22;26371;56.992;23.912;2023-02-28T14:39:44;3.90;99.90
40153;DHT22;26371;56.992;23.912;2023-02-28T14:42:31;3.80;99.90
40153;DHT22;26371;56.992;23.912;2023-02-28T14:45:01;3.70;99.90
40153;DHT22;26371;56.992;23.912;2023-02-28T14:47:32;3.70;99.90
40153;DHT22;26371;56.992;23.912;2023-02-28T14:50:03;3.70;99.90
40153;DHT22;26371;56.992;23.912;2023-02-28T14:52:33;3.70;99.90
40153;DHT22;26371;56.992;23.912;2023-02-28T14:55:04;3.70;99.90
40153;DHT22;26371;56.992;23.912;2023-02-28T14:57:40;3.70;99.90
40153;DHT22;26371;56.992;23.912;2023-02-28T15:00:14;3.60;99.90
40153;DHT22;26371;56.992;23.912;2023-02-28T15:02:43;3.60;99.90
40153;DHT22;26371;56.992;23.912;2023-02-28T15:05:33;3.50;99.90
40153;DHT22;26371;56.992;23.912;2023-02-28T15:08:05;3.50;99.90
40153;DHT22;26371;56.992;23.912;2023-02-28T15:10:34;3.50;99.90
40153;DHT22;26371;56.992;23.912;2023-02-28T15:13:06;3.50;99.90
40153;DHT22;26371;56.992;23.912;2023-02-28T15:15:46;3.50;99.90
40153;DHT22;26371;56.992;23.912;2023-02-28T15:18:36;3.50;99.90
40153;DHT22;26371;56.992;23.912;2023-02-28T15:21:12;3.40;99.90
40153;DHT22;26371;56.992;23.912;2023-02-28T15:23:46;3.40;99.90
40153;DHT22;26371;56.992;23.912;2023-02-28T15:26:19;3.30;99.90
40153;DHT22;26371;56.992;23.912;2023-02-28T15:28:52;3.30;99.90
40153;DHT22;26371;56.992;23.912;2023-02-28T15:31:27;3.20;99.90
40153;DHT22;26371;56.992;23.912;2023-02-28T15:34:06;3.20;99.90
40153;DHT22;26371;56.992;23.912;2023-02-28T15:36:35;3.10;99.90
40153;DHT22;26371;56.992;23.912;2023-02-28T15:39:18;3.10;99.90
40153;DHT22;26371;56.992;23.912;2023-02-28T15:41:47;3.10;99.90
40153;DHT22;26371;56.992;23.912;2023-02-28T15:44:28;3.00;99.90
40153;DHT22;26371;56.992;23.912;2023-02-28T15:47:00;3.10;99.90
40153;DHT22;26371;56.992;23.912;2023-02-28T15:49:36;3.00;99.90
40153;DHT22;26371;56.992;23.912;2023-02-28T15:52:15;3.00;99.90
40153;DHT22;26371;56.992;23.912;2023-02-28T15:54:46;3.00;99.90
40153;DHT22;26371;56.992;23.912;2023-02-28T15:57:15;3.00;99.90
40153;DHT22;26371;56.992;23.912;2023-02-28T15:59:50;3.00;99.90
40153;DHT22;26371;56.992;23.912;2023-02-28T16:02:21;2.90;99.90
40153;DHT22;26371;56.992;23.912;2023-02-28T16:04:58;2.90;99.90
40153;DHT22;26371;56.992;23.912;2023-02-28T16:07:27;2.90;99.90
40153;DHT22;26371;56.992;23.912;2023-02-28T16:09:56;2.90;99.90
40153;DHT22;26371;56.992;23.912;2023-02-28T16:12:26;2.90;99.90
40153;DHT22;26371;56.992;23.912;2023-02-28T16:14:58;2.80;99.90
40153;DHT22;26371;56.992;23.912;2023-02-28T16:17:32;2.80;99.90
40153;DHT22;26371;56.992;23.912;2023-02-28T16:20:11;2.90;99.90
40153;DHT22;26371;56.992;23.912;2023-02-28T16:22:41;2.80;99.90
40153;DHT22;26371;56.992;23.912;2023-02-28T16:25:12;2.80;99.90
40153;DHT22;26371;56.992;23.912;2023-02-28T16:27:42;2.80;99.90
40153;DHT22;26371;56.992;23.912;2023-02-28T16:30:18;2.80;99.90